createdAt,value
2022-08-17T00:00:43.957Z,97.38
2022-08-17T00:01:24.116Z,97.66
2022-08-17T00:02:25.582Z,97.66
2022-08-17T00:03:23.818Z,97.66
2022-08-17T00:04:23.255Z,97.47
2022-08-17T00:05:23.411Z,97.19
2022-08-17T00:06:23.284Z,97.66
2022-08-17T00:07:23.265Z,97.86
2022-08-17T00:08:23.315Z,98.05
2022-08-17T00:09:23.495Z,98.24
2022-08-17T00:10:23.277Z,98.14
2022-08-17T00:11:23.665Z,98.63
2022-08-17T00:12:43.549Z,98.53
2022-08-17T00:13:23.379Z,98.91
2022-08-17T00:14:23.232Z,98.34
2022-08-17T00:15:23.219Z,98.53
2022-08-17T00:16:23.215Z,98.43
2022-08-17T00:17:23.331Z,98.82
2022-08-17T00:19:02.079Z,98.91
2022-08-17T00:19:23.350Z,99.10
2022-08-17T00:20:23.420Z,99.10
2022-08-17T00:21:23.918Z,99.54
2022-08-17T00:22:32.857Z,99.73
2022-08-17T00:23:23.654Z,99.99
2022-08-17T00:24:23.311Z,99.78
2022-08-17T00:25:23.338Z,99.73
2022-08-17T00:26:44.575Z,99.99
2022-08-17T00:27:23.142Z,99.63
2022-08-17T00:28:23.235Z,99.99
2022-08-17T00:29:23.132Z,99.92
2022-08-17T00:30:23.128Z,99.99
2022-08-17T00:31:23.353Z,99.82
2022-08-17T00:33:12.189Z,99.54
2022-08-17T00:33:23.677Z,99.63
2022-08-17T00:35:23.199Z,99.99
2022-08-17T00:36:23.114Z,99.99
2022-08-17T00:37:23.385Z,99.99
2022-08-17T00:38:23.152Z,99.99
2022-08-17T00:39:23.668Z,99.99
2022-08-17T00:40:24.757Z,99.99
2022-08-17T00:41:23.131Z,99.99
2022-08-17T00:42:26.367Z,99.99
2022-08-17T00:43:23.089Z,99.99
2022-08-17T00:44:23.314Z,99.99
2022-08-17T00:45:23.573Z,99.99
2022-08-17T00:46:23.312Z,99.99
2022-08-17T00:47:23.401Z,99.99
2022-08-17T00:48:29.134Z,99.99
2022-08-17T00:49:23.185Z,99.99
2022-08-17T00:50:23.254Z,99.99
2022-08-17T00:51:23.071Z,99.99
2022-08-17T00:52:23.036Z,99.99
2022-08-17T00:53:23.033Z,99.99
2022-08-17T00:54:23.235Z,99.99
2022-08-17T00:55:23.210Z,99.99
2022-08-17T00:56:23.236Z,99.73
2022-08-17T00:57:23.031Z,99.99
2022-08-17T00:58:28.684Z,99.25
2022-08-17T00:59:22.989Z,99.15
2022-08-17T01:00:23.297Z,99.49
2022-08-17T01:01:23.339Z,99.40
2022-08-17T01:02:22.989Z,99.01
2022-08-17T01:03:22.972Z,99.40
2022-08-17T01:04:23.164Z,98.91
2022-08-17T01:05:22.979Z,99.40
2022-08-17T01:06:22.966Z,99.49
2022-08-17T01:07:22.965Z,99.20
2022-08-17T01:08:23.002Z,98.91
2022-08-17T01:09:22.969Z,99.49
2022-08-17T01:10:58.349Z,99.01
2022-08-17T01:11:22.984Z,99.30
2022-08-17T01:12:23.500Z,99.10
2022-08-17T01:13:23.371Z,99.30
2022-08-17T01:14:23.217Z,99.49
2022-08-17T01:15:23.199Z,99.54
2022-08-17T01:16:22.935Z,99.54
2022-08-17T01:17:22.944Z,99.92
2022-08-17T01:18:22.902Z,99.99
2022-08-17T01:19:22.909Z,99.99
2022-08-17T01:20:22.898Z,99.99
2022-08-17T01:21:22.877Z,99.92
2022-08-17T01:22:22.934Z,99.99
2022-08-17T01:23:22.872Z,99.92
2022-08-17T01:24:22.866Z,99.25
2022-08-17T01:25:22.859Z,99.05
2022-08-17T01:26:22.873Z,99.05
2022-08-17T01:27:22.859Z,98.63
2022-08-17T01:28:52.299Z,98.43
2022-08-17T01:29:22.859Z,98.24
2022-08-17T01:30:57.047Z,98.14
2022-08-17T01:31:22.900Z,98.05
2022-08-17T01:32:22.911Z,97.66
2022-08-17T01:33:23.074Z,98.05
2022-08-17T01:34:22.890Z,97.86
2022-08-17T01:35:23.246Z,97.96
2022-08-17T01:36:22.862Z,97.66
2022-08-17T01:37:22.836Z,97.47
2022-08-17T01:38:26.010Z,97.96
2022-08-17T01:39:22.864Z,97.96
2022-08-17T01:40:22.868Z,98.05
2022-08-17T01:41:22.866Z,97.96
2022-08-17T01:42:22.822Z,97.38
2022-08-17T01:43:22.779Z,97.66
2022-08-17T01:44:22.820Z,97.66
2022-08-17T01:45:22.771Z,97.38
2022-08-17T01:46:22.753Z,97.28
2022-08-17T01:47:23.209Z,97.86
2022-08-17T01:48:22.743Z,98.05
2022-08-17T01:49:22.737Z,97.57
2022-08-17T01:50:22.786Z,97.66
2022-08-17T01:51:22.734Z,98.14
2022-08-17T01:52:22.736Z,98.05
2022-08-17T01:53:22.738Z,98.29
2022-08-17T01:54:22.734Z,98.67
2022-08-17T01:55:27.235Z,98.77
2022-08-17T01:56:22.728Z,99.15
2022-08-17T01:57:22.737Z,99.44
2022-08-17T01:58:22.722Z,99.25
2022-08-17T01:59:22.685Z,99.15
2022-08-17T02:00:22.711Z,99.63
2022-08-17T02:01:22.777Z,99.99
2022-08-17T02:02:31.051Z,99.99
2022-08-17T02:03:22.676Z,99.99
2022-08-17T02:04:22.918Z,99.99
2022-08-17T02:05:22.669Z,99.99
2022-08-17T02:06:27.525Z,99.99
2022-08-17T02:07:26.075Z,99.99
2022-08-17T02:08:37.198Z,99.99
2022-08-17T02:09:24.073Z,99.99
2022-08-17T02:10:22.670Z,99.99
2022-08-17T02:11:22.629Z,99.99
2022-08-17T02:12:38.381Z,99.99
2022-08-17T02:13:22.619Z,99.99
2022-08-17T02:14:22.634Z,99.99
2022-08-17T02:15:22.622Z,99.99
2022-08-17T02:16:22.617Z,99.99
2022-08-17T02:17:22.599Z,99.99
2022-08-17T02:18:22.625Z,99.99
2022-08-17T02:19:22.602Z,99.99
2022-08-17T02:20:42.496Z,99.99
2022-08-17T02:21:22.591Z,99.99
2022-08-17T02:22:22.582Z,99.99
2022-08-17T02:23:22.584Z,99.99
2022-08-17T02:24:58.570Z,99.99
2022-08-17T02:25:22.552Z,99.99
2022-08-17T02:26:25.541Z,99.99
2022-08-17T02:27:22.594Z,99.99
2022-08-17T02:28:22.571Z,99.99
2022-08-17T02:29:23.018Z,99.99
2022-08-17T02:30:59.618Z,99.99
2022-08-17T02:31:22.720Z,99.99
2022-08-17T02:32:27.644Z,99.99
2022-08-17T02:33:22.541Z,99.99
2022-08-17T02:34:22.601Z,99.99
2022-08-17T02:35:22.547Z,99.99
2022-08-17T02:36:26.896Z,99.99
2022-08-17T02:37:22.634Z,99.99
2022-08-17T02:38:22.543Z,99.99
2022-08-17T02:39:22.703Z,99.99
2022-08-17T02:40:35.880Z,99.99
2022-08-17T02:41:22.816Z,99.99
2022-08-17T02:42:22.635Z,99.99
2022-08-17T02:43:22.583Z,99.99
2022-08-17T02:44:39.199Z,99.99
2022-08-17T02:45:22.540Z,99.99
2022-08-17T02:46:22.692Z,99.99
2022-08-17T02:47:22.565Z,99.99
2022-08-17T02:48:30.813Z,99.99
2022-08-17T02:49:22.523Z,99.99
2022-08-17T02:50:22.499Z,99.99
2022-08-17T02:51:22.556Z,99.99
2022-08-17T02:52:43.162Z,99.99
2022-08-17T02:53:22.413Z,99.99
2022-08-17T02:54:41.680Z,99.99
2022-08-17T02:55:22.674Z,99.99
2022-08-17T02:57:22.514Z,99.99
2022-08-17T02:58:29.635Z,99.99
2022-08-17T02:59:22.423Z,99.99
2022-08-17T03:00:22.406Z,99.99
2022-08-17T03:01:22.759Z,99.99
2022-08-17T03:02:22.993Z,99.99
2022-08-17T03:03:22.501Z,99.99
2022-08-17T03:04:22.400Z,99.99
2022-08-17T03:05:22.408Z,99.99
2022-08-17T03:06:22.362Z,99.99
2022-08-17T03:07:22.646Z,99.99
2022-08-17T03:08:22.418Z,99.99
2022-08-17T03:09:22.333Z,99.99
2022-08-17T03:10:22.439Z,99.99
2022-08-17T03:11:22.573Z,99.99
2022-08-17T03:12:22.458Z,99.99
2022-08-17T03:13:22.498Z,99.99
2022-08-17T03:14:26.148Z,99.99
2022-08-17T03:16:22.329Z,99.99
2022-08-17T03:17:22.392Z,99.99
2022-08-17T03:18:24.918Z,99.99
2022-08-17T03:19:22.374Z,99.99
2022-08-17T03:20:22.539Z,99.99
2022-08-17T03:21:22.432Z,99.99
2022-08-17T03:22:36.426Z,99.99
2022-08-17T03:23:24.018Z,99.99
2022-08-17T03:24:28.654Z,99.99
2022-08-17T03:25:22.646Z,99.99
2022-08-17T03:26:22.419Z,99.99
2022-08-17T03:27:22.364Z,99.99
2022-08-17T03:28:22.488Z,99.99
2022-08-17T03:29:22.462Z,99.99
2022-08-17T03:30:22.212Z,99.99
2022-08-17T03:31:22.214Z,99.99
2022-08-17T03:32:22.205Z,99.99
2022-08-17T03:33:22.460Z,99.99
2022-08-17T03:34:22.331Z,99.99
2022-08-17T03:35:22.290Z,99.99
2022-08-17T03:36:22.245Z,99.99
2022-08-17T03:37:22.241Z,99.99
2022-08-17T03:38:22.404Z,99.99
2022-08-17T03:39:22.241Z,99.99
2022-08-17T03:40:39.865Z,99.99
2022-08-17T03:41:22.309Z,99.99
2022-08-17T03:42:32.564Z,99.99
2022-08-17T03:43:22.383Z,99.99
2022-08-17T03:44:22.329Z,99.99
2022-08-17T03:45:22.224Z,99.99
2022-08-17T03:46:34.568Z,99.99
2022-08-17T03:47:22.267Z,99.99
2022-08-17T03:48:22.229Z,99.99
2022-08-17T03:49:22.212Z,99.99
2022-08-17T03:50:22.158Z,99.99
2022-08-17T03:51:22.415Z,99.99
2022-08-17T03:52:22.183Z,99.99
2022-08-17T03:53:22.173Z,99.99
2022-08-17T03:54:22.229Z,99.99
2022-08-17T03:55:22.323Z,99.99
2022-08-17T03:56:22.235Z,99.99
2022-08-17T03:57:22.238Z,99.99
2022-08-17T03:58:22.262Z,99.99
2022-08-17T03:59:22.537Z,99.99
2022-08-17T04:00:22.344Z,99.99
2022-08-17T04:01:22.372Z,99.99
2022-08-17T04:02:22.204Z,99.99
2022-08-17T04:03:22.180Z,99.99
2022-08-17T04:04:27.764Z,99.99
2022-08-17T04:05:22.184Z,99.99
2022-08-17T04:06:22.492Z,99.99
2022-08-17T04:07:22.198Z,99.99
2022-08-17T04:08:22.028Z,99.99
2022-08-17T04:09:22.110Z,99.99
2022-08-17T04:10:26.294Z,99.99
2022-08-17T04:11:22.069Z,99.99
2022-08-17T04:12:22.179Z,99.99
2022-08-17T04:13:24.209Z,99.99
2022-08-17T04:14:22.045Z,99.99
2022-08-17T04:15:22.016Z,99.99
2022-08-17T04:16:22.134Z,99.99
2022-08-17T04:17:22.245Z,99.99
2022-08-17T04:18:22.139Z,99.99
2022-08-17T04:19:22.063Z,99.99
2022-08-17T04:20:22.120Z,99.99
2022-08-17T04:21:21.956Z,99.99
2022-08-17T04:22:31.454Z,99.99
2022-08-17T04:23:21.941Z,99.99
2022-08-17T04:24:22.010Z,99.99
2022-08-17T04:25:22.668Z,99.99
2022-08-17T04:26:53.102Z,99.99
2022-08-17T04:27:22.186Z,99.99
2022-08-17T04:28:21.935Z,99.99
2022-08-17T04:29:21.904Z,99.99
2022-08-17T04:30:22.235Z,99.99
2022-08-17T04:31:21.926Z,99.99
2022-08-17T04:32:25.144Z,99.99
2022-08-17T04:33:21.915Z,99.99
2022-08-17T04:34:22.215Z,99.99
2022-08-17T04:35:21.936Z,99.99
2022-08-17T04:36:22.010Z,99.99
2022-08-17T04:37:21.982Z,99.99
2022-08-17T04:38:21.912Z,99.97
2022-08-17T04:39:22.239Z,99.30
2022-08-17T04:40:22.021Z,98.29
2022-08-17T04:41:22.069Z,97.76
2022-08-17T04:42:21.962Z,97.38
2022-08-17T04:43:22.062Z,98.10
2022-08-17T04:44:37.012Z,98.14
2022-08-17T04:45:21.976Z,97.86
2022-08-17T04:46:21.883Z,97.86
2022-08-17T04:47:22.446Z,98.82
2022-08-17T04:48:22.185Z,98.05
2022-08-17T04:49:22.027Z,98.63
2022-08-17T04:50:21.790Z,99.01
2022-08-17T04:51:21.824Z,99.10
2022-08-17T04:52:32.242Z,99.40
2022-08-17T04:53:22.146Z,98.24
2022-08-17T04:54:22.029Z,99.10
2022-08-17T04:55:22.190Z,98.72
2022-08-17T04:56:21.935Z,99.40
2022-08-17T04:57:21.890Z,99.97
2022-08-17T04:58:22.369Z,98.91
2022-08-17T04:59:21.869Z,99.49
2022-08-17T05:00:22.522Z,99.68
2022-08-17T05:01:23.946Z,99.99
2022-08-17T05:02:21.823Z,99.87
2022-08-17T05:03:21.787Z,99.99
2022-08-17T05:04:34.559Z,99.01
2022-08-17T05:05:21.725Z,99.20
2022-08-17T05:06:21.886Z,99.97
2022-08-17T05:07:24.627Z,99.10
2022-08-17T05:08:21.864Z,99.30
2022-08-17T05:09:21.998Z,98.29
2022-08-17T05:10:21.852Z,97.52
2022-08-17T05:11:21.899Z,97.28
2022-08-17T05:12:22.034Z,98.48
2022-08-17T05:13:21.691Z,98.39
2022-08-17T05:14:21.755Z,98.29
2022-08-17T05:15:21.767Z,96.75
2022-08-17T05:16:22.117Z,97.28
2022-08-17T05:17:21.875Z,97.04
2022-08-17T05:18:21.927Z,97.91
2022-08-17T05:19:21.656Z,97.91
2022-08-17T05:20:21.695Z,98.00
2022-08-17T05:21:21.731Z,97.04
2022-08-17T05:22:21.698Z,96.37
2022-08-17T05:23:21.725Z,97.19
2022-08-17T05:24:40.726Z,98.53
2022-08-17T05:25:25.525Z,98.91
2022-08-17T05:26:26.110Z,98.82
2022-08-17T05:27:21.617Z,98.48
2022-08-17T05:28:24.170Z,98.00
2022-08-17T05:29:21.750Z,98.10
2022-08-17T05:30:21.687Z,98.19
2022-08-17T05:31:21.733Z,97.42
2022-08-17T05:32:38.770Z,96.90
2022-08-17T05:33:21.646Z,96.70
2022-08-17T05:34:21.792Z,96.80
2022-08-17T05:35:21.628Z,96.22
2022-08-17T05:36:43.621Z,95.26
2022-08-17T05:37:21.595Z,96.13
2022-08-17T05:38:21.849Z,95.94
2022-08-17T05:39:21.728Z,95.45
2022-08-17T05:40:21.641Z,95.45
2022-08-17T05:41:21.564Z,96.22
2022-08-17T05:42:21.546Z,96.03
2022-08-17T05:43:21.881Z,95.45
2022-08-17T05:44:21.574Z,95.98
2022-08-17T05:45:28.096Z,96.75
2022-08-17T05:46:21.533Z,98.14
2022-08-17T05:47:21.611Z,97.57
2022-08-17T05:48:21.643Z,97.28
2022-08-17T05:49:21.775Z,95.84
2022-08-17T05:50:25.763Z,96.08
2022-08-17T05:51:21.763Z,93.77
2022-08-17T05:52:21.827Z,93.68
2022-08-17T05:53:21.822Z,92.85
2022-08-17T05:54:21.888Z,92.76
2022-08-17T05:55:22.048Z,92.38
2022-08-17T05:56:29.546Z,91.13
2022-08-17T05:57:21.729Z,89.97
2022-08-17T05:58:21.757Z,89.97
2022-08-17T05:59:22.607Z,90.73
2022-08-17T06:01:21.920Z,91.13
2022-08-17T06:02:22.044Z,91.99
2022-08-17T06:03:21.713Z,90.16
2022-08-17T06:04:21.887Z,90.16
2022-08-17T06:05:21.685Z,89.10
2022-08-17T06:06:21.625Z,90.20
2022-08-17T06:07:21.827Z,90.01
2022-08-17T06:08:21.785Z,90.06
2022-08-17T06:09:27.660Z,89.34
2022-08-17T06:10:21.527Z,93.00
2022-08-17T06:11:22.782Z,89.43
2022-08-17T06:12:21.550Z,87.99
2022-08-17T06:13:21.843Z,89.05
2022-08-17T06:14:21.698Z,89.05
2022-08-17T06:15:21.802Z,90.20
2022-08-17T06:16:33.224Z,90.20
2022-08-17T06:17:21.714Z,88.09
2022-08-17T06:18:21.728Z,87.99
2022-08-17T06:19:21.638Z,87.80
2022-08-17T06:20:21.965Z,88.28
2022-08-17T06:21:23.737Z,90.01
2022-08-17T06:22:21.431Z,88.18
2022-08-17T06:23:21.568Z,86.98
2022-08-17T06:24:21.726Z,86.40
2022-08-17T06:25:21.390Z,88.04
2022-08-17T06:26:21.659Z,86.98
2022-08-17T06:27:21.447Z,86.69
2022-08-17T06:28:21.515Z,87.07
2022-08-17T06:29:21.939Z,86.59
2022-08-17T06:30:21.386Z,86.21
2022-08-17T06:31:21.414Z,86.59
2022-08-17T06:32:21.435Z,86.15
2022-08-17T06:33:21.419Z,85.67
2022-08-17T06:34:21.380Z,85.47
2022-08-17T06:35:21.604Z,85.28
2022-08-17T06:36:21.659Z,84.61
2022-08-17T06:37:21.831Z,85.28
2022-08-17T06:38:37.934Z,85.96
2022-08-17T06:39:21.616Z,84.90
2022-08-17T06:40:21.554Z,86.00
2022-08-17T06:41:21.451Z,85.33
2022-08-17T06:43:05.243Z,84.17
2022-08-17T06:43:21.473Z,83.73
2022-08-17T06:44:43.630Z,83.15
2022-08-17T06:45:22.041Z,83.15
2022-08-17T06:46:21.298Z,82.24
2022-08-17T06:47:28.717Z,83.01
2022-08-17T06:48:21.340Z,82.82
2022-08-17T06:49:21.785Z,82.05
2022-08-17T06:50:21.732Z,82.09
2022-08-17T06:51:21.561Z,82.34
2022-08-17T06:52:45.520Z,82.28
2022-08-17T06:53:21.563Z,82.18
2022-08-17T06:54:21.582Z,82.38
2022-08-17T06:55:21.470Z,81.90
2022-08-17T06:56:21.552Z,83.15
2022-08-17T06:57:21.461Z,82.09
2022-08-17T06:58:21.493Z,82.03
2022-08-17T06:59:21.225Z,82.81
2022-08-17T07:00:21.541Z,80.72
2022-08-17T07:01:21.493Z,79.85
2022-08-17T07:02:29.465Z,80.14
2022-08-17T07:03:21.490Z,79.27
2022-08-17T07:04:21.214Z,78.92
2022-08-17T07:05:21.569Z,79.47
2022-08-17T07:06:21.434Z,79.75
2022-08-17T07:07:21.400Z,79.31
2022-08-17T07:08:22.689Z,79.02
2022-08-17T07:09:21.231Z,78.73
2022-08-17T07:10:21.548Z,78.02
2022-08-17T07:11:21.382Z,78.54
2022-08-17T07:12:21.173Z,78.59
2022-08-17T07:13:21.258Z,79.31
2022-08-17T07:14:21.721Z,78.34
2022-08-17T07:15:21.541Z,78.54
2022-08-17T07:16:21.384Z,78.64
2022-08-17T07:17:21.452Z,77.73
2022-08-17T07:18:21.345Z,79.12
2022-08-17T07:19:21.235Z,79.37
2022-08-17T07:20:21.496Z,79.80
2022-08-17T07:21:25.847Z,79.41
2022-08-17T07:22:21.317Z,77.38
2022-08-17T07:23:21.309Z,77.00
2022-08-17T07:24:26.349Z,78.83
2022-08-17T07:25:21.383Z,79.74
2022-08-17T07:26:21.263Z,76.84
2022-08-17T07:27:21.243Z,75.48
2022-08-17T07:28:21.151Z,75.78
2022-08-17T07:29:21.213Z,75.58
2022-08-17T07:30:21.435Z,75.81
2022-08-17T07:31:21.239Z,75.39
2022-08-17T07:32:21.265Z,75.71
2022-08-17T07:33:21.265Z,76.33
2022-08-17T07:34:21.168Z,73.91
2022-08-17T07:35:21.353Z,73.53
2022-08-17T07:36:21.460Z,74.59
2022-08-17T07:37:21.377Z,75.65
2022-08-17T07:38:24.906Z,74.15
2022-08-17T07:39:21.119Z,73.85
2022-08-17T07:40:21.314Z,72.83
2022-08-17T07:41:21.277Z,71.76
2022-08-17T07:42:21.472Z,72.05
2022-08-17T07:43:21.904Z,71.18
2022-08-17T07:44:21.543Z,71.95
2022-08-17T07:45:21.308Z,72.15
2022-08-17T07:46:21.324Z,71.70
2022-08-17T07:48:21.197Z,70.25
2022-08-17T07:49:21.108Z,70.25
2022-08-17T07:50:25.709Z,69.57
2022-08-17T07:51:21.203Z,68.02
2022-08-17T07:52:47.624Z,70.25
2022-08-17T07:53:21.225Z,69.89
2022-08-17T07:54:21.086Z,68.34
2022-08-17T07:55:21.117Z,68.15
2022-08-17T07:56:21.079Z,68.05
2022-08-17T07:57:21.095Z,68.24
2022-08-17T07:58:21.131Z,68.44
2022-08-17T07:59:23.944Z,69.54
2022-08-17T08:00:24.378Z,69.73
2022-08-17T08:01:21.152Z,66.66
2022-08-17T08:02:21.338Z,65.59
2022-08-17T08:03:21.240Z,66.37
2022-08-17T08:04:29.146Z,65.98
2022-08-17T08:05:46.706Z,66.66
2022-08-17T08:06:21.088Z,66.53
2022-08-17T08:07:21.076Z,66.66
2022-08-17T08:08:21.060Z,66.34
2022-08-17T08:09:21.199Z,67.34
2022-08-17T08:10:21.059Z,66.69
2022-08-17T08:11:21.082Z,66.99
2022-08-17T08:12:21.155Z,64.46
2022-08-17T08:13:21.110Z,63.91
2022-08-17T08:14:21.083Z,65.37
2022-08-17T08:15:21.044Z,64.78
2022-08-17T08:16:21.241Z,64.98
2022-08-17T08:17:21.093Z,64.59
2022-08-17T08:18:53.706Z,64.46
2022-08-17T08:20:42.441Z,64.78
2022-08-17T08:21:21.192Z,64.40
2022-08-17T08:22:21.280Z,61.87
2022-08-17T08:23:21.181Z,62.68
2022-08-17T08:24:21.085Z,62.00
2022-08-17T08:25:21.292Z,61.05
2022-08-17T08:26:21.098Z,63.00
2022-08-17T08:27:21.128Z,61.25
2022-08-17T08:28:21.117Z,62.06
2022-08-17T08:29:21.294Z,61.08
2022-08-17T08:30:21.263Z,61.02
2022-08-17T08:31:21.057Z,58.71
2022-08-17T08:32:21.291Z,58.91
2022-08-17T08:33:21.112Z,59.00
2022-08-17T08:34:45.013Z,57.81
2022-08-17T08:35:21.110Z,57.93
2022-08-17T08:37:12.771Z,57.32
2022-08-17T08:37:32.577Z,58.51
2022-08-17T08:38:21.077Z,58.77
2022-08-17T08:40:21.771Z,57.31
2022-08-17T08:41:21.575Z,55.87
2022-08-17T08:42:22.102Z,55.41
2022-08-17T08:43:21.426Z,54.63
2022-08-17T08:44:21.471Z,52.80
2022-08-17T08:45:21.309Z,52.44
2022-08-17T08:46:21.079Z,53.52
2022-08-17T08:47:21.291Z,54.10
2022-08-17T08:48:23.031Z,50.39
2022-08-17T08:49:33.810Z,50.92
2022-08-17T08:50:38.145Z,52.75
2022-08-17T08:51:21.075Z,53.73
2022-08-17T08:52:21.078Z,52.29
2022-08-17T08:53:21.086Z,52.97
2022-08-17T08:54:26.802Z,53.78
2022-08-17T08:55:21.436Z,51.92
2022-08-17T08:56:21.109Z,50.68
2022-08-17T08:57:27.992Z,49.22
2022-08-17T08:58:32.302Z,51.00
2022-08-17T08:59:21.120Z,51.27
2022-08-17T09:00:21.228Z,50.49
2022-08-17T09:01:21.144Z,49.41
2022-08-17T09:02:21.102Z,50.49
2022-08-17T09:03:31.576Z,49.51
2022-08-17T09:04:25.162Z,50.00
2022-08-17T09:05:21.097Z,48.83
2022-08-17T09:06:33.282Z,49.12
2022-08-17T09:07:21.101Z,48.07
2022-08-17T09:08:21.114Z,48.14
2022-08-17T09:09:21.104Z,49.73
2022-08-17T09:10:21.101Z,47.41
2022-08-17T09:11:21.158Z,48.11
2022-08-17T09:12:21.118Z,47.55
2022-08-17T09:13:21.113Z,45.86
2022-08-17T09:14:28.203Z,45.57
2022-08-17T09:15:21.098Z,46.37
2022-08-17T09:16:21.123Z,45.23
2022-08-17T09:17:21.141Z,47.28
2022-08-17T09:19:01.610Z,47.58
2022-08-17T09:19:21.114Z,47.97
2022-08-17T09:20:28.182Z,47.99
2022-08-17T09:21:21.368Z,46.45
2022-08-17T09:22:21.109Z,46.26
2022-08-17T09:23:21.122Z,44.89
2022-08-17T09:24:21.135Z,45.37
2022-08-17T09:25:21.144Z,45.97
2022-08-17T09:26:21.128Z,45.86
2022-08-17T09:27:21.121Z,45.79
2022-08-17T09:28:21.134Z,46.28
2022-08-17T09:29:21.139Z,44.73
2022-08-17T09:30:21.128Z,45.25
2022-08-17T09:31:21.158Z,43.77
2022-08-17T09:32:21.158Z,44.54
2022-08-17T09:33:21.147Z,45.13
2022-08-17T09:34:21.131Z,44.85
2022-08-17T09:35:21.243Z,44.46
2022-08-17T09:36:21.152Z,44.19
2022-08-17T09:37:21.170Z,44.07
2022-08-17T09:38:21.146Z,44.76
2022-08-17T09:39:21.182Z,45.54
2022-08-17T09:40:21.232Z,44.27
2022-08-17T09:41:21.337Z,44.95
2022-08-17T09:42:21.151Z,44.19
2022-08-17T09:43:21.157Z,42.91
2022-08-17T09:44:23.222Z,43.62
2022-08-17T09:45:21.383Z,43.43
2022-08-17T09:46:21.170Z,42.33
2022-08-17T09:47:21.163Z,42.05
2022-08-17T09:48:21.163Z,43.72
2022-08-17T09:49:25.156Z,41.86
2022-08-17T09:51:03.914Z,42.08
2022-08-17T09:51:21.177Z,42.37
2022-08-17T09:52:21.192Z,42.10
2022-08-17T09:53:21.159Z,41.02
2022-08-17T09:54:38.470Z,41.15
2022-08-17T09:55:21.189Z,42.78
2022-08-17T09:56:21.416Z,43.37
2022-08-17T09:57:36.101Z,44.13
2022-08-17T09:58:21.201Z,45.28
2022-08-17T09:59:21.197Z,44.49
2022-08-17T10:00:21.180Z,45.16
2022-08-17T10:01:21.506Z,45.55
2022-08-17T10:02:21.451Z,43.71
2022-08-17T10:03:21.193Z,44.40
2022-08-17T10:04:23.757Z,44.49
2022-08-17T10:05:21.196Z,45.26
2022-08-17T10:06:22.363Z,44.18
2022-08-17T10:07:21.213Z,44.40
2022-08-17T10:08:21.719Z,43.84
2022-08-17T10:09:23.235Z,43.44
2022-08-17T10:10:21.921Z,45.23
2022-08-17T10:11:21.458Z,43.76
2022-08-17T10:12:21.252Z,42.07
2022-08-17T10:13:21.227Z,42.46
2022-08-17T10:14:36.822Z,43.24
2022-08-17T10:15:21.223Z,42.09
2022-08-17T10:16:21.219Z,42.68
2022-08-17T10:17:21.209Z,43.07
2022-08-17T10:18:21.217Z,42.70
2022-08-17T10:19:21.259Z,42.31
2022-08-17T10:20:21.213Z,40.94
2022-08-17T10:21:21.257Z,41.62
2022-08-17T10:22:35.211Z,42.33
2022-08-17T10:23:21.447Z,41.23
2022-08-17T10:24:21.232Z,42.50
2022-08-17T10:25:24.195Z,41.31
2022-08-17T10:26:21.229Z,42.48
2022-08-17T10:27:21.240Z,41.29
2022-08-17T10:28:24.686Z,42.85
2022-08-17T10:29:21.600Z,42.36
2022-08-17T10:30:21.711Z,42.17
2022-08-17T10:31:36.924Z,43.27
2022-08-17T10:32:21.256Z,42.46
2022-08-17T10:33:21.236Z,42.38
2022-08-17T10:34:21.239Z,41.97
2022-08-17T10:35:21.248Z,42.97
2022-08-17T10:36:21.247Z,42.29
2022-08-17T10:37:21.248Z,41.21
2022-08-17T10:38:21.522Z,41.70
2022-08-17T10:39:21.245Z,41.88
2022-08-17T10:40:21.327Z,41.97
2022-08-17T10:41:21.264Z,41.97
2022-08-17T10:42:30.301Z,42.46
2022-08-17T10:43:21.272Z,43.27
2022-08-17T10:44:39.216Z,42.46
2022-08-17T10:45:21.277Z,42.95
2022-08-17T10:46:30.863Z,43.84
2022-08-17T10:47:21.267Z,43.46
2022-08-17T10:48:21.280Z,44.44
2022-08-17T10:49:21.268Z,42.09
2022-08-17T10:50:21.271Z,42.56
2022-08-17T10:51:21.268Z,42.07
2022-08-17T10:52:21.268Z,42.29
2022-08-17T10:53:21.272Z,43.46
2022-08-17T10:54:21.283Z,43.46
2022-08-17T10:55:21.288Z,42.02
2022-08-17T10:56:21.289Z,41.89
2022-08-17T10:57:21.283Z,42.11
2022-08-17T10:58:21.296Z,41.11
2022-08-17T10:59:21.997Z,41.88
2022-08-17T11:00:27.042Z,42.07
2022-08-17T11:01:21.341Z,42.85
2022-08-17T11:02:21.314Z,42.17
2022-08-17T11:03:21.315Z,42.27
2022-08-17T11:04:21.294Z,42.76
2022-08-17T11:05:21.295Z,41.97
2022-08-17T11:06:21.307Z,41.97
2022-08-17T11:07:21.300Z,42.17
2022-08-17T11:08:21.505Z,42.78
2022-08-17T11:09:21.321Z,41.88
2022-08-17T11:10:21.325Z,41.39
2022-08-17T11:11:21.298Z,41.09
2022-08-17T11:12:21.322Z,42.17
2022-08-17T11:13:21.315Z,42.46
2022-08-17T11:14:21.316Z,41.31
2022-08-17T11:15:21.798Z,41.31
2022-08-17T11:16:21.322Z,41.00
2022-08-17T11:17:21.315Z,41.68
2022-08-17T11:18:21.322Z,41.09
2022-08-17T11:19:21.330Z,42.36
2022-08-17T11:20:21.317Z,41.36
2022-08-17T11:21:21.351Z,41.56
2022-08-17T11:22:21.682Z,42.03
2022-08-17T11:23:21.340Z,42.03
2022-08-17T11:24:21.347Z,42.42
2022-08-17T11:25:21.320Z,43.42
2022-08-17T11:26:21.323Z,42.07
2022-08-17T11:27:21.331Z,41.96
2022-08-17T11:28:21.342Z,41.76
2022-08-17T11:29:21.350Z,42.15
2022-08-17T11:30:21.335Z,42.54
2022-08-17T11:31:21.364Z,42.27
2022-08-17T11:32:21.364Z,41.39
2022-08-17T11:33:21.354Z,41.11
2022-08-17T11:34:21.657Z,40.63
2022-08-17T11:35:25.134Z,41.41
2022-08-17T11:36:21.461Z,42.29
2022-08-17T11:37:21.652Z,41.72
2022-08-17T11:39:21.504Z,40.86
2022-08-17T11:40:21.533Z,39.39
2022-08-17T11:41:21.745Z,40.08
2022-08-17T11:42:21.638Z,40.06
2022-08-17T11:43:22.097Z,40.35
2022-08-17T11:44:21.768Z,40.23
2022-08-17T11:45:32.139Z,41.21
2022-08-17T11:46:21.901Z,39.56
2022-08-17T11:47:21.871Z,40.45
2022-08-17T11:48:28.157Z,39.06
2022-08-17T11:49:21.392Z,40.53
2022-08-17T11:50:25.724Z,40.64
2022-08-17T11:51:21.403Z,39.09
2022-08-17T11:52:21.374Z,37.92
2022-08-17T11:53:21.373Z,37.92
2022-08-17T11:54:32.951Z,38.60
2022-08-17T11:55:35.419Z,37.52
2022-08-17T11:56:21.374Z,38.70
2022-08-17T11:57:21.405Z,39.00
2022-08-17T11:58:21.411Z,37.92
2022-08-17T11:59:21.389Z,38.04
2022-08-17T12:00:21.400Z,38.60
2022-08-17T12:01:21.438Z,38.02
2022-08-17T12:02:21.400Z,38.41
2022-08-17T12:03:21.445Z,39.59
2022-08-17T12:04:21.446Z,38.41
2022-08-17T12:05:21.620Z,39.01
2022-08-17T12:06:21.429Z,38.23
2022-08-17T12:07:21.401Z,38.43
2022-08-17T12:08:21.412Z,37.90
2022-08-17T12:09:21.462Z,38.68
2022-08-17T12:10:21.718Z,39.66
2022-08-17T12:11:55.101Z,39.54
2022-08-17T12:12:21.624Z,39.64
2022-08-17T12:13:21.452Z,39.94
2022-08-17T12:14:29.527Z,39.94
2022-08-17T12:15:21.437Z,39.72
2022-08-17T12:16:21.423Z,40.41
2022-08-17T12:17:39.258Z,40.80
2022-08-17T12:18:21.418Z,40.90
2022-08-17T12:19:21.416Z,40.82
2022-08-17T12:20:21.621Z,39.25
2022-08-17T12:21:21.443Z,39.54
2022-08-17T12:22:21.576Z,39.86
2022-08-17T12:23:21.424Z,40.06
2022-08-17T12:24:21.812Z,39.00
2022-08-17T12:25:21.439Z,37.92
2022-08-17T12:26:21.467Z,39.49
2022-08-17T12:27:21.427Z,38.60
2022-08-17T12:28:21.868Z,37.73
2022-08-17T12:29:38.325Z,39.19
2022-08-17T12:30:21.503Z,37.73
2022-08-17T12:31:21.628Z,38.80
2022-08-17T12:32:21.471Z,37.90
2022-08-17T12:33:28.046Z,38.78
2022-08-17T12:34:21.474Z,39.17
2022-08-17T12:35:21.441Z,39.76
2022-08-17T12:36:21.446Z,40.35
2022-08-17T12:37:21.482Z,38.68
2022-08-17T12:38:30.407Z,38.98
2022-08-17T12:39:21.601Z,39.27
2022-08-17T12:40:21.455Z,39.27
2022-08-17T12:41:21.474Z,38.88
2022-08-17T12:42:21.467Z,38.78
2022-08-17T12:43:21.467Z,39.78
2022-08-17T12:44:21.462Z,39.19
2022-08-17T12:45:21.481Z,38.21
2022-08-17T12:46:21.468Z,39.29
2022-08-17T12:47:23.031Z,38.51
2022-08-17T12:48:21.497Z,39.41
2022-08-17T12:49:21.537Z,37.84
2022-08-17T12:50:28.278Z,37.74
2022-08-17T12:51:21.503Z,36.88
2022-08-17T12:52:21.492Z,36.58
2022-08-17T12:53:21.528Z,36.88
2022-08-17T12:54:21.476Z,36.68
2022-08-17T12:55:21.484Z,37.84
2022-08-17T12:56:21.494Z,37.92
2022-08-17T12:57:21.694Z,37.81
2022-08-17T12:58:21.490Z,38.86
2022-08-17T12:59:30.106Z,39.64
2022-08-17T13:00:21.510Z,39.76